Time;durP1;ratioP1;P1;durP2;ratioP2;P2;SDS_P1;SDS_P2;PMS_P1;PMS_P2;Temp;Humidity;BMP_temperature;BMP_pressure;BME280_temperature;BME280_humidity;BME280_pressure;Samples;Min_cycle;Max_cycle;Signal;HPM_P1;HPM_P2
2021/04/14 00:04:38;;;;;;;3.90;2.15;;;;;;;2.70;64.20;101190.06;10506319;28;20094;-67
2021/04/14 00:09:40;;;;;;;3.85;2.15;;;;;;;2.62;64.34;101192.56;10497793;28;20048;-67
2021/04/14 00:14:41;;;;;;;4.78;1.95;;;;;;;2.34;64.91;101198.03;10496723;28;20037;-67
2021/04/14 00:19:42;;;;;;;2.78;2.10;;;;;;;2.67;64.35;101195.22;10505328;28;20048;-68
2021/04/14 00:24:44;;;;;;;6.40;2.58;;;;;;;2.47;64.70;101184.44;10506598;28;20044;-67
2021/04/14 00:29:45;;;;;;;3.70;1.98;;;;;;;2.39;65.12;101196.41;10497896;28;20052;-67
2021/04/14 00:34:46;;;;;;;5.03;2.25;;;;;;;2.38;64.66;101192.06;10498099;28;20106;-67
2021/04/14 00:39:47;;;;;;;5.25;2.47;;;;;;;2.48;64.93;101191.41;10505648;28;20110;-67
2021/04/14 00:44:49;;;;;;;3.65;2.10;;;;;;;2.40;64.89;101186.06;10504951;28;20094;-67
2021/04/14 00:49:52;;;;;;;4.30;2.10;;;;;;;2.23;65.31;101187.44;10498379;28;20048;-67
2021/04/14 00:54:54;;;;;;;3.05;1.88;;;;;;;2.25;65.04;101193.53;10499245;28;20040;-68
2021/04/14 00:59:55;;;;;;;5.75;2.25;;;;;;;2.30;65.52;101188.44;10499500;28;20068;-66
2021/04/14 01:04:56;;;;;;;5.50;2.83;;;;;;;2.16;65.35;101198.53;10503901;28;20044;-68
2021/04/14 01:09:57;;;;;;;6.00;2.70;;;;;;;2.04;65.70;101188.78;10503608;28;20086;-66
2021/04/14 01:14:59;;;;;;;3.90;2.20;;;;;;;1.90;66.54;101203.13;10503043;28;20052;-67
2021/04/14 01:20:01;;;;;;;4.45;2.30;;;;;;;1.90;66.32;101201.41;10501689;28;20072;-68
2021/04/14 01:25:06;;;;;;;6.72;2.33;;;;;;;1.97;66.34;101202.44;10496830;28;20044;-68
2021/04/14 01:30:24;;;;;;;3.28;2.20;;;;;;;1.93;66.78;101198.91;10502369;28;20056;-67
2021/04/14 01:35:27;;;;;;;3.17;2.28;;;;;;;1.92;66.52;101198.88;10503380;28;20094;-67
2021/04/14 01:40:28;;;;;;;7.80;2.40;;;;;;;1.75;67.23;101193.31;10500809;28;20048;-68
2021/04/14 01:45:41;;;;;;;3.75;1.80;;;;;;;1.95;66.71;101197.25;10502294;28;20079;-67
2021/04/14 01:50:43;;;;;;;3.67;2.47;;;;;;;1.85;67.21;101192.66;10502706;28;20064;-67
2021/04/14 01:55:44;;;;;;;5.70;2.83;;;;;;;1.80;67.22;101189.09;10495296;28;20045;-67
2021/04/14 02:00:54;;;;;;;3.75;2.45;;;;;;;1.75;67.15;101196.78;10501482;28;20136;-67
2021/04/14 02:05:56;;;;;;;4.95;3.00;;;;;;;1.77;66.82;101191.63;10501460;28;20044;-66
2021/04/14 02:10:57;;;;;;;4.85;2.83;;;;;;;1.52;67.63;101192.78;10495805;28;20083;-67
2021/04/14 02:15:59;;;;;;;4.70;2.45;;;;;;;1.55;67.35;101194.56;10497004;28;20044;-67
2021/04/14 02:21:01;;;;;;;3.53;2.63;;;;;;;1.62;67.35;101197.34;10500163;28;20116;-67
2021/04/14 02:26:05;;;;;;;4.80;2.28;;;;;;;1.52;67.63;101201.44;10500053;28;20526;-67
2021/04/14 02:31:08;;;;;;;6.80;2.97;;;;;;;1.48;67.66;101194.44;10500367;28;20135;-67
2021/04/14 02:36:10;;;;;;;6.43;3.33;;;;;;;1.50;67.61;101197.03;10496892;28;20037;-67
2021/04/14 02:41:12;;;;;;;6.05;2.58;;;;;;;1.58;67.41;101194.66;10501496;28;20049;-67
2021/04/14 02:46:13;;;;;;;4.65;2.50;;;;;;;1.41;67.81;101189.94;10510201;28;20037;-67
2021/04/14 02:51:15;;;;;;;4.50;3.53;;;;;;;1.38;67.78;101195.06;10505183;28;20470;-68
2021/04/14 02:56:16;;;;;;;5.28;2.72;;;;;;;1.43;67.12;101198.63;10505097;28;20048;-67
2021/04/14 03:01:18;;;;;;;4.55;2.53;;;;;;;1.52;67.46;101193.66;10488796;28;20052;-67
2021/04/14 03:06:19;;;;;;;5.18;2.60;;;;;;;1.34;67.71;101200.13;10505435;28;20106;-68
2021/04/14 03:11:20;;;;;;;5.45;2.95;;;;;;;1.34;67.87;101198.41;10508714;28;20068;-67
2021/04/14 03:16:23;;;;;;;3.03;2.45;;;;;;;1.36;67.90;101196.72;10506957;28;20037;-67
2021/04/14 03:21:24;;;;;;;6.22;3.20;;;;;;;1.42;67.50;101204.66;10505844;28;20071;-67
2021/04/14 03:26:25;;;;;;;2.92;2.25;;;;;;;1.20;67.80;101208.44;10507889;28;20047;-67
2021/04/14 03:31:27;;;;;;;6.00;2.75;;;;;;;1.20;68.03;101202.38;10506475;28;20071;-67
2021/04/14 03:36:28;;;;;;;4.72;2.97;;;;;;;1.15;68.22;101196.19;10506652;28;20033;-67
2021/04/14 03:41:29;;;;;;;6.43;2.72;;;;;;;1.25;67.73;101196.47;10505716;28;20058;-66
2021/04/14 03:46:31;;;;;;;6.95;2.70;;;;;;;1.18;68.32;101194.56;10506444;28;20401;-67
2021/04/14 03:51:33;;;;;;;9.13;2.88;;;;;;;1.20;67.81;101204.97;10496599;28;20068;-67
2021/04/14 03:56:34;;;;;;;6.25;2.67;;;;;;;1.18;68.26;101206.63;10505935;28;20062;-66
2021/04/14 04:01:36;;;;;;;6.10;3.33;;;;;;;0.90;69.12;101211.13;10505506;28;20490;-67
2021/04/14 04:06:38;;;;;;;4.78;3.25;;;;;;;1.07;68.98;101201.19;10505977;28;20123;-67
2021/04/14 04:11:40;;;;;;;9.05;4.70;;;;;;;1.13;68.67;101201.34;10497671;28;20460;-67
2021/04/14 04:16:41;;;;;;;10.90;4.68;;;;;;;1.14;68.93;101205.69;10503600;28;20063;-67
2021/04/14 04:21:43;;;;;;;9.20;4.57;;;;;;;1.02;69.14;101215.75;10504411;28;20098;-67
2021/04/14 04:26:44;;;;;;;8.68;4.10;;;;;;;1.19;68.51;101211.84;10496183;28;20111;-67
2021/04/14 04:31:45;;;;;;;6.43;4.05;;;;;;;0.91;69.40;101215.44;10495859;28;20067;-67
2021/04/14 04:36:50;;;;;;;5.32;4.03;;;;;;;1.17;69.05;101216.13;10504031;28;20044;-68
2021/04/14 04:41:51;;;;;;;5.97;3.42;;;;;;;1.16;68.70;101218.69;10502411;28;20067;-67
2021/04/14 04:46:52;;;;;;;8.18;4.28;;;;;;;1.14;68.88;101221.22;10495833;28;20056;-67
2021/04/14 04:51:53;;;;;;;13.10;5.72;;;;;;;1.06;69.12;101224.44;10480771;28;20074;-67
2021/04/14 04:56:55;;;;;;;9.35;5.00;;;;;;;1.15;69.31;101225.59;10502741;28;20036;-67
2021/04/14 05:02:00;;;;;;;9.70;4.70;;;;;;;1.22;69.18;101229.19;10501638;28;20044;-68
2021/04/14 05:07:02;;;;;;;9.57;4.93;;;;;;;1.11;69.35;101230.66;10502848;28;20047;-67
2021/04/14 05:12:03;;;;;;;7.53;4.72;;;;;;;1.30;69.13;101238.03;10502530;28;20048;-68
2021/04/14 05:17:05;;;;;;;11.05;4.65;;;;;;;1.43;68.96;101231.44;10501868;28;20036;-67
2021/04/14 05:22:08;;;;;;;10.25;3.38;;;;;;;1.47;68.45;101241.03;10501701;28;20048;-68
2021/04/14 05:27:09;;;;;;;9.25;5.25;;;;;;;1.57;68.01;101244.72;10500136;28;20052;-68
2021/04/14 05:32:12;;;;;;;8.68;4.47;;;;;;;1.62;68.43;101243.13;10500640;28;20043;-68
2021/04/14 05:37:13;;;;;;;8.30;4.45;;;;;;;1.66;68.05;101248.41;10500654;28;20486;-68
2021/04/14 05:42:14;;;;;;;10.23;5.93;;;;;;;1.62;68.30;101245.72;10500332;28;20055;-68
2021/04/14 05:47:16;;;;;;;24.23;8.85;;;;;;;1.56;68.64;101250.75;10501248;28;20043;-68
2021/04/14 05:52:17;;;;;;;12.45;6.88;;;;;;;1.79;68.12;101249.59;10501560;28;20162;-68
2021/04/14 05:57:19;;;;;;;14.13;5.78;;;;;;;1.93;67.53;101258.53;10497920;28;20079;-68
2021/04/14 06:02:20;;;;;;;10.15;4.90;;;;;;;2.44;66.33;101250.16;10500818;28;20417;-66
2021/04/14 06:07:21;;;;;;;10.10;6.28;;;;;;;3.04;64.60;101244.41;10501372;28;20041;-68
2021/04/14 06:12:23;;;;;;;8.60;4.28;;;;;;;4.00;62.23;101241.63;10500275;28;20048;-68
2021/04/14 06:17:24;;;;;;;10.85;4.85;;;;;;;4.47;60.79;101233.56;10504007;28;20106;-66
2021/04/14 06:22:27;;;;;;;11.63;4.45;;;;;;;6.00;57.36;101235.00;10508929;28;20072;-67
2021/04/14 06:27:40;;;;;;;10.48;4.38;;;;;;;5.87;57.19;101238.38;10507387;28;20041;-66
2021/04/14 06:32:42;;;;;;;12.60;4.53;;;;;;;5.92;57.14;101237.56;10508419;28;20070;-67
2021/04/14 06:37:43;;;;;;;10.07;5.20;;;;;;;4.24;60.86;101246.28;10508273;28;20101;-68
2021/04/14 06:43:09;;;;;;;13.77;5.18;;;;;;;4.03;61.80;101249.47;10508509;28;20116;-67
2021/04/14 06:48:22;;;;;;;8.00;3.33;;;;;;;3.99;61.87;101256.38;10509401;28;20041;-66
2021/04/14 06:53:33;;;;;;;21.60;4.20;;;;;;;4.33;61.72;101253.34;10506827;28;20052;-67
2021/04/14 06:58:37;;;;;;;12.65;5.47;;;;;;;4.31;61.41;101255.94;10499726;28;20090;-67
2021/04/14 07:03:45;;;;;;;12.45;4.45;;;;;;;4.12;61.56;101260.03;10500551;28;20049;-66
2021/04/14 07:09:07;;;;;;;10.80;4.03;;;;;;;4.03;62.12;101267.69;10508947;28;20045;-68
2021/04/14 07:14:10;;;;;;;10.23;4.38;;;;;;;4.17;61.90;101257.47;10507714;28;20052;-67
2021/04/14 07:19:48;;;;;;;20.65;4.60;;;;;;;3.93;62.75;101257.97;10506941;28;20044;-67
2021/04/14 07:24:57;;;;;;;9.35;4.75;;;;;;;4.50;61.91;101249.22;10506624;28;20044;-67
2021/04/14 07:30:07;;;;;;;9.88;3.78;;;;;;;4.16;62.01;101256.59;10506333;28;20102;-67
2021/04/14 07:35:35;;;;;;;7.22;3.60;;;;;;;4.55;61.51;101252.75;10507472;28;20043;-67
2021/04/14 07:40:53;;;;;;;17.13;3.67;;;;;;;4.42;61.28;101241.31;10506339;28;20049;-67
2021/04/14 07:45:55;;;;;;;11.07;3.88;;;;;;;4.73;61.06;101245.16;10500787;28;20444;-67
2021/04/14 07:51:00;;;;;;;15.27;3.78;;;;;;;5.20;59.19;101244.78;10506472;28;20086;-68
2021/04/14 07:56:04;;;;;;;13.10;5.57;;;;;;;5.45;59.42;101248.50;10501363;28;20401;-67
2021/04/14 08:01:11;;;;;;;10.77;4.32;;;;;;;5.76;57.92;101243.53;10506949;28;20482;-67
2021/04/14 08:06:17;;;;;;;12.40;4.15;;;;;;;5.65;58.34;101243.44;10506921;28;20093;-67
2021/04/14 08:11:31;;;;;;;13.90;3.60;;;;;;;5.65;58.02;101246.03;10504182;28;20048;-67
2021/04/14 08:16:35;;;;;;;15.43;2.92;;;;;;;5.01;58.28;101241.13;10504500;28;20068;-66
2021/04/14 08:21:40;;;;;;;8.18;3.15;;;;;;;4.97;57.96;101235.88;10496008;28;20056;-67
2021/04/14 08:26:50;;;;;;;11.32;2.40;;;;;;;5.75;56.21;101241.75;10497346;28;20037;-68
2021/04/14 08:31:53;;;;;;;10.48;2.45;;;;;;;5.50;55.62;101231.16;10504309;28;20044;-67
2021/04/14 08:36:57;;;;;;;7.55;1.88;;;;;;;5.70;52.83;101218.25;10503375;28;20047;-67
2021/04/14 08:42:12;;;;;;;8.52;2.22;;;;;;;6.43;53.06;101227.41;10502935;28;20041;-66
2021/04/14 08:47:22;;;;;;;10.10;2.33;;;;;;;6.04;53.89;101224.59;10502755;28;20040;-66
2021/04/14 08:52:24;;;;;;;6.15;2.03;;;;;;;5.71;53.43;101224.34;10500470;28;20406;-68
2021/04/14 08:57:26;;;;;;;5.88;1.60;;;;;;;6.47;51.27;101210.88;10501210;28;20062;-68
2021/04/14 09:02:27;;;;;;;9.15;2.17;;;;;;;6.78;50.12;101197.03;10500953;28;20048;-67
2021/04/14 09:07:36;;;;;;;5.18;1.60;;;;;;;6.46;50.27;101209.13;10501405;28;20040;-67
2021/04/14 09:12:42;;;;;;;5.22;1.80;;;;;;;6.25;51.27;101205.56;10501234;28;20052;-67
2021/04/14 09:17:56;;;;;;;8.57;1.50;;;;;;;6.91;49.66;101197.94;10492862;28;20115;-68
2021/04/14 09:23:02;;;;;;;7.97;2.17;;;;;;;6.44;50.77;101209.13;10500940;28;20053;-67
2021/04/14 09:28:03;;;;;;;8.18;1.60;;;;;;;6.72;48.77;101197.00;10495394;28;20048;-66
2021/04/14 09:33:04;;;;;;;6.40;1.60;;;;;;;7.81;48.37;101191.81;10500855;28;20048;-67
2021/04/14 09:38:25;;;;;;;4.40;1.52;;;;;;;7.29;47.84;101197.97;10487087;28;20068;-68
2021/04/14 09:43:26;;;;;;;8.60;2.08;;;;;;;6.92;50.32;101198.81;10485017;28;20494;-67
2021/04/14 09:48:50;;;;;;;6.72;1.73;;;;;;;6.60;53.00;101199.63;10469127;28;20037;-67
2021/04/14 09:53:58;;;;;;;13.25;3.20;;;;;;;7.02;50.70;101183.13;10465716;28;20553;-67
2021/04/14 09:59:10;;;;;;;8.40;2.42;;;;;;;7.22;52.20;101177.94;10501616;28;20032;-67
2021/04/14 10:04:22;;;;;;;4.53;1.52;;;;;;;6.85;48.86;101190.06;10500184;28;20456;-67
2021/04/14 10:09:26;;;;;;;6.43;1.90;;;;;;;6.03;49.39;101180.22;10500117;28;20044;-67
2021/04/14 10:14:27;;;;;;;2.65;0.82;;;;;;;6.63;47.23;101177.81;10499741;28;20052;-68
2021/04/14 10:19:31;;;;;;;3.88;0.90;;;;;;;7.40;47.07;101160.50;10498201;28;20086;-67
2021/04/14 10:24:34;;;;;;;4.13;1.20;;;;;;;8.69;44.80;101167.06;10499209;28;20090;-66
2021/04/14 10:29:42;;;;;;;3.50;1.00;;;;;;;7.84;43.63;101160.41;10491517;28;20045;-67
2021/04/14 10:34:46;;;;;;;4.05;0.82;;;;;;;7.65;42.65;101148.22;10500129;28;20049;-67
2021/04/14 10:39:48;;;;;;;4.95;1.13;;;;;;;8.12;41.17;101148.09;10499297;28;20060;-67
2021/04/14 10:44:49;;;;;;;3.13;0.88;;;;;;;7.82;42.28;101138.59;10498883;28;20040;-67
2021/04/14 10:49:51;;;;;;;4.43;1.10;;;;;;;7.52;42.30;101137.78;10499193;28;20048;-66
2021/04/14 10:54:56;;;;;;;2.28;0.80;;;;;;;7.83;43.22;101130.75;10498328;28;20040;-66
2021/04/14 11:00:09;;;;;;;1.45;0.63;;;;;;;8.61;40.82;101126.91;10501541;28;20079;-68
2021/04/14 11:05:14;;;;;;;2.20;0.80;;;;;;;9.12;39.91;101118.66;10508151;28;20139;-68
2021/04/14 11:10:23;;;;;;;2.53;0.90;;;;;;;9.69;40.41;101105.88;10506726;28;20109;-67
2021/04/14 11:15:32;;;;;;;3.78;0.68;;;;;;;9.04;40.38;101108.25;10504313;28;20116;-67
2021/04/14 11:20:50;;;;;;;6.07;0.57;;;;;;;9.12;40.43;101114.31;10506124;28;20051;-67
2021/04/14 11:26:10;;;;;;;1.95;1.05;;;;;;;8.63;40.60;101112.03;10506719;28;20048;-67
2021/04/14 11:31:24;;;;;;;4.10;1.00;;;;;;;8.75;41.85;101111.97;10503030;28;20098;-67
2021/04/14 11:36:26;;;;;;;3.22;1.00;;;;;;;8.56;41.26;101120.84;10507133;28;20468;-67
2021/04/14 11:41:29;;;;;;;2.50;0.80;;;;;;;8.55;40.26;101109.50;10508006;28;20052;-68
2021/04/14 11:46:34;;;;;;;3.28;0.90;;;;;;;8.82;40.90;101111.06;10500141;28;20438;-68
2021/04/14 11:51:44;;;;;;;3.55;1.10;;;;;;;8.39;42.27;101107.84;10507182;28;20044;-68
2021/04/14 11:56:59;;;;;;;2.53;0.98;;;;;;;8.94;42.14;101117.06;10507479;28;20048;-68
2021/04/14 12:02:03;;;;;;;3.63;1.35;;;;;;;8.20;42.28;101117.50;10508291;28;20041;-68
2021/04/14 12:07:05;;;;;;;3.10;1.05;;;;;;;7.82;41.59;101109.78;10506239;28;20044;-67
2021/04/14 12:12:09;;;;;;;5.47;1.20;;;;;;;8.18;41.44;101107.91;10505917;28;20044;-67
2021/04/14 12:17:12;;;;;;;3.65;1.00;;;;;;;7.74;43.33;101104.56;10504583;28;20119;-67
2021/04/14 12:22:14;;;;;;;4.05;1.15;;;;;;;7.73;42.74;101109.81;10505361;28;20052;-67
2021/04/14 12:27:15;;;;;;;3.80;1.10;;;;;;;7.49;43.82;101114.25;10504925;28;20048;-65
2021/04/14 12:32:16;;;;;;;2.97;1.10;;;;;;;6.87;45.11;101116.91;10504633;28;20071;-68
2021/04/14 12:37:18;;;;;;;4.07;1.17;;;;;;;7.11;44.89;101110.81;10502479;28;20048;-67
2021/04/14 12:42:19;;;;;;;7.47;1.00;;;;;;;7.25;44.86;101101.19;10505260;28;20044;-67
2021/04/14 12:47:24;;;;;;;3.80;0.85;;;;;;;7.85;43.02;101096.72;10498741;28;20096;-67
2021/04/14 12:52:48;;;;;;;3.78;1.00;;;;;;;8.00;42.54;101098.38;10464017;28;20045;-68
2021/04/14 12:57:49;;;;;;;4.40;1.35;;;;;;;7.80;44.62;101095.84;10477774;28;20048;-69
2021/04/14 13:02:57;;;;;;;3.42;0.93;;;;;;;7.72;43.36;101092.38;10483562;28;20099;-67
2021/04/14 13:08:03;;;;;;;5.32;1.05;;;;;;;8.11;41.63;101087.88;10483104;28;20044;-68
2021/04/14 13:13:04;;;;;;;5.55;0.93;;;;;;;7.80;41.43;101083.63;10505012;28;20040;-68
2021/04/14 13:18:08;;;;;;;4.72;0.90;;;;;;;7.56;42.09;101084.56;10503492;28;20563;-67
2021/04/14 13:23:45;;;;;;;1.77;0.80;;;;;;;7.65;41.21;101088.03;10503169;28;20036;-68
2021/04/14 13:28:53;;;;;;;2.95;0.82;;;;;;;7.57;42.90;101081.09;10454498;28;20052;-68
2021/04/14 13:34:06;;;;;;;5.75;0.70;;;;;;;7.88;41.30;101075.75;10503084;28;20044;-68
2021/04/14 13:39:36;;;;;;;2.25;0.75;;;;;;;7.51;41.50;101065.41;10502587;28;20386;-68
2021/04/14 13:44:43;;;;;;;2.05;0.52;;;;;;;7.61;41.49;101063.63;10501708;28;20132;-68
2021/04/14 13:49:51;;;;;;;2.83;0.90;;;;;;;7.82;42.15;101066.16;10499885;28;20448;-67
2021/04/14 13:54:56;;;;;;;3.28;1.02;;;;;;;7.57;41.08;101059.31;10499902;28;20045;-67
2021/04/14 14:00:00;;;;;;;3.78;0.98;;;;;;;7.75;41.41;101053.13;10499983;28;20045;-66
2021/04/14 14:05:08;;;;;;;2.90;0.88;;;;;;;7.68;41.69;101044.41;10499597;28;20047;-66
2021/04/14 14:10:19;;;;;;;2.47;0.65;;;;;;;7.81;41.84;101040.00;10460155;28;20064;-66
2021/04/14 14:15:23;;;;;;;3.78;0.68;;;;;;;8.05;41.34;101034.63;10458495;28;20087;-67
2021/04/14 14:20:29;;;;;;;2.30;0.70;;;;;;;7.95;41.37;101040.81;10468750;28;20044;-67
2021/04/14 14:25:32;;;;;;;2.83;1.15;;;;;;;7.86;40.73;101038.25;10483426;28;20119;-66
2021/04/14 14:30:33;;;;;;;3.05;1.20;;;;;;;8.00;40.67;101023.31;10473278;28;20079;-67
2021/04/14 14:35:36;;;;;;;3.78;1.17;;;;;;;8.17;38.90;101020.59;10482283;28;20041;-68
2021/04/14 14:40:42;;;;;;;2.42;0.90;;;;;;;8.25;39.32;101018.81;10484112;28;20520;-68
2021/04/14 14:45:52;;;;;;;2.90;0.75;;;;;;;8.01;38.37;101017.22;10466626;28;20475;-67
2021/04/14 14:50:56;;;;;;;4.18;1.73;;;;;;;7.92;39.89;101019.88;10467290;28;20545;-66
2021/04/14 14:56:07;;;;;;;5.35;1.25;;;;;;;8.01;40.23;101022.47;10465655;28;20045;-66
2021/04/14 15:01:11;;;;;;;5.85;1.92;;;;;;;7.50;42.93;101018.31;10465709;28;20560;-66
2021/04/14 15:06:19;;;;;;;2.42;1.00;;;;;;;7.52;42.07;101008.72;10488278;28;20040;-67
2021/04/14 15:11:22;;;;;;;3.28;1.05;;;;;;;7.77;42.52;101006.88;10506753;28;20049;-66
2021/04/14 15:16:23;;;;;;;2.88;0.88;;;;;;;7.51;43.17;101018.31;10506264;28;20044;-66
2021/04/14 15:21:24;;;;;;;3.90;1.15;;;;;;;7.24;44.09;101011.41;10506293;28;20444;-67
2021/04/14 15:26:26;;;;;;;4.25;1.10;;;;;;;7.27;43.64;101003.56;10506882;28;20082;-69
2021/04/14 15:31:30;;;;;;;7.70;1.85;;;;;;;7.22;43.44;100999.25;10503938;28;20098;-68
2021/04/14 15:36:36;;;;;;;3.20;1.13;;;;;;;7.22;42.99;100991.41;10505417;28;20070;-69
2021/04/14 15:41:38;;;;;;;2.95;0.70;;;;;;;7.12;41.56;100995.75;10505050;28;20044;-67
2021/04/14 15:46:40;;;;;;;3.80;1.20;;;;;;;7.03;42.75;100991.41;10505219;28;20041;-68
2021/04/14 15:51:41;;;;;;;3.22;0.52;;;;;;;7.03;40.12;100998.38;10504939;28;20041;-70
2021/04/14 15:56:42;;;;;;;3.88;0.88;;;;;;;7.08;39.72;100988.78;10497210;28;20045;-68
2021/04/14 16:01:51;;;;;;;3.05;0.82;;;;;;;7.00;39.04;100991.44;10504677;28;20051;-68
2021/04/14 16:06:55;;;;;;;1.25;0.60;;;;;;;6.96;40.44;100987.09;10505597;28;20067;-69
2021/04/14 16:11:56;;;;;;;3.63;1.40;;;;;;;7.08;40.48;100986.16;10498551;28;20044;-69
2021/04/14 16:16:58;;;;;;;3.53;0.90;;;;;;;7.08;41.18;100981.84;10499207;28;20093;-69
2021/04/14 16:21:59;;;;;;;2.65;0.90;;;;;;;7.05;41.15;100979.22;10504367;28;20052;-68
2021/04/14 16:27:01;;;;;;;3.40;0.80;;;;;;;7.25;42.02;100986.13;10503193;28;20040;-70
2021/04/14 16:32:02;;;;;;;1.67;0.70;;;;;;;7.38;41.95;100981.75;10485170;28;20052;-69
2021/04/14 16:37:04;;;;;;;4.20;1.30;;;;;;;7.37;42.18;100980.00;10502498;28;20047;-69
2021/04/14 16:42:06;;;;;;;2.42;0.82;;;;;;;7.44;42.03;100984.34;10503321;28;20047;-67
2021/04/14 16:47:07;;;;;;;1.77;0.70;;;;;;;7.59;42.89;100974.66;10572150;23;20040;-79
2021/04/14 16:52:09;;;;;;;4.78;1.10;;;;;;;7.57;43.33;100971.22;10570055;28;20511;-79
2021/04/14 16:57:10;;;;;;;2.22;1.70;;;;;;;7.56;43.32;100974.69;10572762;28;20092;-78
2021/04/14 17:02:11;;;;;;;3.67;0.90;;;;;;;7.07;44.57;100973.97;10555722;28;20044;-79
2021/04/14 17:07:13;;;;;;;2.70;1.10;;;;;;;7.13;44.75;100970.47;10570583;28;20150;-79
2021/04/14 17:12:16;;;;;;;3.15;1.10;;;;;;;7.10;45.26;100979.22;10589688;28;20539;-80
2021/04/14 17:17:17;;;;;;;3.40;1.10;;;;;;;6.87;47.25;100981.00;10589838;28;20448;-78
2021/04/14 17:22:18;;;;;;;2.47;0.90;;;;;;;6.62;47.44;100982.75;10574672;28;20094;-79
2021/04/14 17:27:20;;;;;;;4.00;2.05;;;;;;;6.44;48.66;100979.28;10592814;28;20449;-80
2021/04/14 17:32:21;;;;;;;3.60;1.02;;;;;;;6.36;48.81;100991.47;10597849;28;20047;-79
2021/04/14 17:37:22;;;;;;;3.70;1.40;;;;;;;6.13;49.78;100993.19;10611735;28;20048;-80
2021/04/14 17:42:23;;;;;;;4.50;1.02;;;;;;;6.16;49.13;100996.69;10606538;28;20488;-80
2021/04/14 17:47:25;;;;;;;4.30;2.13;;;;;;;6.01;49.33;100992.28;10595560;28;20045;-82
2021/04/14 17:52:27;;;;;;;5.72;3.15;;;;;;;5.80;50.67;101011.34;10575624;28;20079;-79
2021/04/14 17:57:28;;;;;;;4.78;1.83;;;;;;;5.69;51.55;101010.41;10596279;28;20032;-81
2021/04/14 18:02:30;;;;;;;2.17;0.93;;;;;;;5.40;52.56;101023.34;10603797;28;20048;-80
2021/04/14 18:07:32;;;;;;;2.40;1.13;;;;;;;5.27;52.64;101029.34;10584425;28;20115;-80
2021/04/14 18:12:33;;;;;;;3.50;1.02;;;;;;;5.22;52.88;101031.94;10617768;28;20070;-79
2021/04/14 18:17:35;;;;;;;2.40;1.00;;;;;;;5.19;52.44;101031.91;10623081;28;20065;-81
2021/04/14 18:22:36;;;;;;;1.58;0.85;;;;;;;5.19;52.10;101033.66;10595409;28;20039;-80
2021/04/14 18:27:38;;;;;;;3.47;1.00;;;;;;;5.09;52.56;101037.94;10610011;28;20141;-81
2021/04/14 18:32:40;;;;;;;2.65;1.00;;;;;;;5.01;53.22;101044.81;10605224;28;20050;-82
2021/04/14 18:37:41;;;;;;;4.07;1.20;;;;;;;5.04;53.59;101039.63;10605651;28;20081;-80
2021/04/14 18:42:43;;;;;;;1.52;0.80;;;;;;;5.07;53.59;101045.72;10604673;28;20097;-80
2021/04/14 18:47:44;;;;;;;2.63;0.88;;;;;;;4.95;54.07;101052.59;10602925;28;20147;-79
2021/04/14 18:52:46;;;;;;;4.88;0.93;;;;;;;5.11;53.94;101051.84;10586821;28;20044;-79
2021/04/14 18:57:47;;;;;;;6.25;1.77;;;;;;;4.65;55.36;101061.91;10590043;28;20493;-80
2021/04/14 19:02:49;;;;;;;4.53;1.77;;;;;;;4.83;55.07;101062.94;10587165;28;20047;-80
2021/04/14 19:07:51;;;;;;;4.55;1.48;;;;;;;4.72;55.00;101068.03;10601084;28;20039;-80
2021/04/14 19:12:52;;;;;;;3.88;1.63;;;;;;;4.87;54.72;101068.19;10609791;28;20130;-80
2021/04/14 19:17:57;;;;;;;3.80;1.40;;;;;;;4.79;55.38;101075.06;10606924;28;20043;-81
2021/04/14 19:22:59;;;;;;;5.15;1.92;;;;;;;4.74;54.69;101081.97;10601598;28;20069;-82
2021/04/14 19:28:00;;;;;;;3.45;1.50;;;;;;;4.82;54.99;101082.88;10600472;28;20031;-80
2021/04/14 19:33:02;;;;;;;3.58;1.88;;;;;;;5.03;54.45;101075.22;10600207;28;20089;-81
2021/04/14 19:38:09;;;;;;;5.93;4.00;;;;;;;4.94;54.64;101075.16;10582374;28;20047;-81
2021/04/14 19:43:11;;;;;;;5.90;2.80;;;;;;;4.95;54.39;101083.84;10582270;28;20070;-80
2021/04/14 19:48:12;;;;;;;5.88;4.15;;;;;;;4.83;54.76;101089.84;10582774;28;20189;-80
2021/04/14 19:53:16;;;;;;;7.50;1.88;;;;;;;4.78;54.42;101089.81;10600591;28;20047;-80
2021/04/14 19:58:18;;;;;;;4.07;1.50;;;;;;;4.81;54.21;101095.03;10603715;28;20453;-80
2021/04/14 20:03:19;;;;;;;4.65;2.15;;;;;;;4.87;54.02;101086.41;10601039;28;20093;-82
2021/04/14 20:08:21;;;;;;;6.47;2.10;;;;;;;5.09;54.45;101083.94;10603468;28;20043;-80
2021/04/14 20:13:24;;;;;;;7.63;2.90;;;;;;;4.85;54.73;101084.63;10604821;28;20099;-80
2021/04/14 20:18:25;;;;;;;5.22;2.72;;;;;;;4.57;55.64;101084.41;10599575;28;20043;-79
2021/04/14 20:23:27;;;;;;;7.40;3.38;;;;;;;4.55;56.63;101086.09;10599446;28;20036;-79
2021/04/14 20:28:30;;;;;;;7.07;3.38;;;;;;;4.61;56.74;101090.53;10586112;28;20102;-82
2021/04/14 20:33:32;;;;;;;5.22;2.83;;;;;;;4.77;55.93;101089.78;10602043;28;20058;-79
2021/04/14 20:38:33;;;;;;;3.95;2.53;;;;;;;4.88;55.03;101088.16;10583488;28;20048;-80
2021/04/14 20:43:34;;;;;;;3.95;1.80;;;;;;;5.02;54.68;101090.88;10598482;28;20054;-79
2021/04/14 20:48:35;;;;;;;6.30;1.95;;;;;;;4.72;55.67;101096.69;10580485;28;20480;-80
2021/04/14 20:53:37;;;;;;;5.28;1.73;;;;;;;4.73;55.22;101093.22;10578278;28;20139;-80
2021/04/14 20:58:39;;;;;;;3.70;1.52;;;;;;;4.79;55.28;101098.50;10596503;28;20044;-80
2021/04/14 21:03:40;;;;;;;5.38;1.67;;;;;;;4.40;56.01;101098.97;10595070;28;20139;-80
2021/04/14 21:08:42;;;;;;;4.55;1.92;;;;;;;4.30;55.95;101104.09;10577880;28;20048;-79
2021/04/14 21:13:43;;;;;;;3.45;1.52;;;;;;;4.22;56.35;101099.66;10577876;28;20079;-78
2021/04/14 21:18:44;;;;;;;5.35;1.98;;;;;;;4.29;56.40;101101.44;10574925;28;20048;-79
2021/04/14 21:23:46;;;;;;;4.22;1.52;;;;;;;4.43;56.03;101093.81;10596992;28;20040;-78
2021/04/14 21:28:47;;;;;;;5.28;1.50;;;;;;;4.58;55.29;101093.94;10574636;28;20092;-79
2021/04/14 21:33:48;;;;;;;3.45;1.05;;;;;;;4.58;55.75;101087.88;10595640;28;20041;-79
2021/04/14 21:38:50;;;;;;;2.03;1.20;;;;;;;4.55;55.12;101091.31;10576422;28;20052;-79
2021/04/14 21:43:51;;;;;;;2.75;1.35;;;;;;;4.62;55.49;101087.06;10575466;28;20075;-78
2021/04/14 21:48:52;;;;;;;4.38;1.48;;;;;;;4.59;56.06;101085.28;10592368;28;20273;-80
2021/04/14 21:53:54;;;;;;;2.38;1.45;;;;;;;4.41;56.81;101088.56;10613165;28;20047;-77
2021/04/14 21:58:56;;;;;;;4.55;1.58;;;;;;;4.36;56.96;101082.44;10595148;28;20039;-79
2021/04/14 22:03:57;;;;;;;2.92;1.42;;;;;;;4.23;57.36;101081.44;10611154;28;20047;-77
2021/04/14 22:08:59;;;;;;;2.88;1.90;;;;;;;4.21;57.52;101082.31;10607449;28;20054;-78
2021/04/14 22:14:00;;;;;;;3.60;1.75;;;;;;;4.15;57.97;101088.28;10589449;28;20043;-78
2021/04/14 22:19:06;;;;;;;4.80;1.73;;;;;;;4.09;58.35;101088.22;10605095;28;20100;-79
2021/04/14 22:24:09;;;;;;;4.50;2.05;;;;;;;3.89;58.90;101087.97;10593755;28;20067;-79
2021/04/14 22:29:17;;;;;;;3.63;2.05;;;;;;;3.89;59.47;101084.50;10556302;28;20063;-79
2021/04/14 22:34:18;;;;;;;4.07;2.08;;;;;;;3.71;59.82;101085.16;10572271;28;20067;-78
2021/04/14 22:39:19;;;;;;;4.45;2.30;;;;;;;3.64;60.53;101084.22;10588290;28;20035;-78
2021/04/14 22:44:21;;;;;;;3.72;2.47;;;;;;;3.54;60.78;101083.22;10593807;28;20074;-79
2021/04/14 22:49:22;;;;;;;3.67;2.40;;;;;;;3.68;60.85;101090.34;10565101;23;20493;-81
2021/04/14 22:54:23;;;;;;;8.40;2.13;;;;;;;3.70;60.74;101086.00;10543274;28;20051;-80
2021/04/14 22:59:24;;;;;;;5.43;2.53;;;;;;;3.49;61.31;101084.88;10582572;28;20088;-79
2021/04/14 23:04:26;;;;;;;4.32;2.50;;;;;;;3.43;61.76;101097.78;10574701;28;20520;-79
2021/04/14 23:09:27;;;;;;;4.35;2.70;;;;;;;3.47;61.95;101096.09;10535717;28;20068;-80
2021/04/14 23:14:28;;;;;;;3.90;2.80;;;;;;;3.45;61.71;101093.50;10548974;28;20048;-81
2021/04/14 23:19:29;;;;;;;4.53;2.53;;;;;;;3.57;61.61;101082.38;10589565;28;20051;-80
2021/04/14 23:24:30;;;;;;;3.97;3.08;;;;;;;3.52;61.40;101086.66;10580160;28;20028;-80
2021/04/14 23:29:32;;;;;;;4.75;3.35;;;;;;;3.45;61.58;101085.69;10597135;28;20057;-81
2021/04/14 23:34:33;;;;;;;4.70;2.60;;;;;;;3.40;62.03;101092.53;10542545;28;20044;-81